Time;durP1;ratioP1;P1;durP2;ratioP2;P2;SDS_P1;SDS_P2;PMS_P1;PMS_P2;Temp;Humidity;BMP_temperature;BMP_pressure;BME280_temperature;BME280_humidity;BME280_pressure;Samples;Min_cycle;Max_cycle;Signal;HPM_P1;HPM_P2
2022/06/06 00:00:08;;;;;;;;;;;;;;;11.29;100.00;99646.47;1721637;83;21217;-67
2022/06/06 00:02:41;;;;;;;;;;;;;;;11.25;100.00;99643.55;1722177;83;20077;-67
2022/06/06 00:05:13;;;;;;;;;;;;;;;11.23;100.00;99645.80;1717161;83;20136;-67
2022/06/06 00:07:40;;;;;;;;;;;;;;;11.18;100.00;99641.26;1716814;83;20121;-68
2022/06/06 00:10:08;;;;;;;;;;;;;;;11.15;100.00;99641.89;1716721;83;20130;-67
2022/06/06 00:12:36;;;;;;;;;;;;;;;11.14;100.00;99644.95;1716729;83;20085;-67
2022/06/06 00:15:05;;;;;;;;;;;;;;;11.10;100.00;99650.27;1716713;83;20141;-67
2022/06/06 00:17:32;;;;;;;;;;;;;;;11.07;100.00;99650.91;1716917;83;20085;-67
2022/06/06 00:20:00;;;;;;;;;;;;;;;11.07;100.00;99641.30;1716759;83;20089;-67
2022/06/06 00:22:27;;;;;;;;;;;;;;;11.09;100.00;99645.91;1716815;83;20468;-67
2022/06/06 00:24:54;;;;;;;;;;;;;;;11.09;100.00;99635.48;1716817;83;21196;-67
2022/06/06 00:27:21;;;;;;;;;;;;;;;11.12;100.00;99645.27;1716716;83;20170;-67
2022/06/06 00:29:49;;;;;;;;;;;;;;;11.12;100.00;99640.34;1716762;82;20165;-67
2022/06/06 00:35:04;;;;;;;;;;;;;;;11.12;100.00;99640.34;1716743;83;20132;-67
2022/06/06 00:37:32;;;;;;;;;;;;;;;11.12;100.00;99645.27;1716697;83;22066;-67
2022/06/06 00:40:01;;;;;;;;;;;;;;;11.12;100.00;99644.47;1716602;83;20113;-67
2022/06/06 00:42:30;;;;;;;;;;;;;;;11.08;100.00;99643.47;1716615;83;20073;-67
2022/06/06 00:45:27;;;;;;;;;;;;;;;11.06;100.00;99641.61;1716646;83;20113;-67
2022/06/06 00:48:18;;;;;;;;;;;;;;;11.04;100.00;99646.05;1704485;83;20138;-67
2022/06/06 00:51:03;;;;;;;;;;;;;;;11.01;100.00;99643.93;1716821;83;21145;-67
2022/06/06 00:53:36;;;;;;;;;;;;;;;10.99;100.00;99643.44;1716736;83;20109;-68
2022/06/06 00:56:09;;;;;;;;;;;;;;;10.96;100.00;99641.34;1716739;83;20101;-67
2022/06/06 00:58:36;;;;;;;;;;;;;;;10.95;100.00;99642.47;1715509;83;20611;-67
2022/06/06 01:01:03;;;;;;;;;;;;;;;10.98;100.00;99645.13;1716707;83;20081;-67
2022/06/06 01:03:30;;;;;;;;;;;;;;;10.96;100.00;99648.22;1717195;83;21097;-67
2022/06/06 01:05:57;;;;;;;;;;;;;;;10.95;100.00;99647.16;1722124;83;20424;-67
2022/06/06 01:08:24;;;;;;;;;;;;;;;10.96;100.00;99647.41;1722052;83;20123;-67
2022/06/06 01:10:51;;;;;;;;;;;;;;;10.95;100.00;99643.03;1722420;83;20169;-66
2022/06/06 01:13:17;;;;;;;;;;;;;;;10.92;100.00;99638.98;1722178;83;20095;-67
2022/06/06 01:15:59;;;;;;;;;;;;;;;10.89;100.00;99640.42;1722155;83;21139;-67
2022/06/06 01:18:48;;;;;;;;;;;;;;;10.86;100.00;99641.62;1722427;83;20109;-67
2022/06/06 01:21:27;;;;;;;;;;;;;;;10.85;100.00;99641.38;1721887;83;20120;-66
2022/06/06 01:24:15;;;;;;;;;;;;;;;10.83;100.00;99639.50;1722175;83;20085;-66
2022/06/06 01:27:20;;;;;;;;;;;;;;;10.82;100.00;99642.00;1722375;83;20445;-68
2022/06/06 01:29:49;;;;;;;;;;;;;;;10.81;100.00;99644.50;1722112;82;21761;-68
2022/06/06 01:32:18;;;;;;;;;;;;;;;10.79;100.00;99646.75;1722018;83;20459;-68
2022/06/06 01:34:48;;;;;;;;;;;;;;;10.78;100.00;99647.88;1722172;83;20097;-67
2022/06/06 01:37:32;;;;;;;;;;;;;;;10.77;100.00;99642.94;1722010;83;20097;-67
2022/06/06 01:40:00;;;;;;;;;;;;;;;10.85;100.00;99645.48;1722107;83;20101;-67
2022/06/06 01:42:35;;;;;;;;;;;;;;;10.84;100.00;99647.98;1722135;83;21100;-67
2022/06/06 01:45:12;;;;;;;;;;;;;;;10.82;100.00;99648.86;1722015;83;20121;-67
2022/06/06 01:47:41;;;;;;;;;;;;;;;10.78;100.00;99657.48;1722495;83;20160;-67
2022/06/06 01:50:09;;;;;;;;;;;;;;;10.76;100.00;99655.05;1722246;83;37999;-67
2022/06/06 01:52:50;;;;;;;;;;;;;;;10.84;100.00;99653.48;1722157;83;20434;-67
2022/06/06 01:55:17;;;;;;;;;;;;;;;10.92;100.00;99656.84;1712167;83;21171;-67
2022/06/06 01:57:45;;;;;;;;;;;;;;;11.01;100.00;99652.73;1722069;83;20121;-68
2022/06/06 02:00:13;;;;;;;;;;;;;;;11.03;100.00;99660.91;1713610;82;20091;-68
2022/06/06 02:02:43;;;;;;;;;;;;;;;11.03;100.00;99662.28;1710572;82;20097;-68
2022/06/06 02:05:11;;;;;;;;;;;;;;;11.03;100.00;99660.09;1698649;83;20155;-68
2022/06/06 02:07:40;;;;;;;;;;;;;;;11.01;100.00;99660.41;1693224;85;21845;-68
2022/06/06 02:10:09;;;;;;;;;;;;;;;11.01;100.00;99666.47;1693212;84;20087;-68
2022/06/06 02:12:37;;;;;;;;;;;;;;;11.05;100.00;99658.66;1693562;85;20087;-68
2022/06/06 02:15:05;;;;;;;;;;;;;;;11.14;100.00;99671.06;1693131;85;20123;-68
2022/06/06 02:17:31;;;;;;;;;;;;;;;11.23;100.00;99663.67;1693306;85;20088;-67
2022/06/06 02:20:00;;;;;;;;;;;;;;;11.35;100.00;99664.44;1696926;82;21160;-67
2022/06/06 02:22:26;;;;;;;;;;;;;;;11.47;100.00;99663.27;1693220;85;20423;-68
2022/06/06 02:24:53;;;;;;;;;;;;;;;11.65;100.00;99668.23;1720163;83;20129;-68
2022/06/06 02:27:20;;;;;;;;;;;;;;;11.80;100.00;99666.44;1714933;83;20951;-68
2022/06/06 02:29:46;;;;;;;;;;;;;;;11.88;100.00;99669.20;1693162;84;20123;-68
2022/06/06 02:32:12;;;;;;;;;;;;;;;11.94;100.00;99667.67;1693284;83;21881;-67
2022/06/06 02:34:39;;;;;;;;;;;;;;;11.99;100.00;99666.95;1693199;85;20115;-67
2022/06/06 02:37:06;;;;;;;;;;;;;;;12.05;100.00;99670.36;1717396;83;20117;-67
2022/06/06 02:39:33;;;;;;;;;;;;;;;12.06;100.00;99674.16;1722225;83;20616;-67
2022/06/06 02:42:00;;;;;;;;;;;;;;;12.07;100.00;99674.41;1722159;83;20122;-67
2022/06/06 02:44:27;;;;;;;;;;;;;;;12.04;100.00;99679.18;1722251;83;21843;-67
2022/06/06 02:46:53;;;;;;;;;;;;;;;12.03;100.00;99675.38;1722140;83;20085;-67
2022/06/06 02:49:20;;;;;;;;;;;;;;;12.06;100.00;99670.04;1721598;82;20437;-68
2022/06/06 02:51:46;;;;;;;;;;;;;;;12.13;100.00;99676.44;1751664;82;20163;-68
2022/06/06 02:54:13;;;;;;;;;;;;;;;12.22;100.00;99671.72;1751761;82;20095;-69
2022/06/06 02:56:40;;;;;;;;;;;;;;;12.28;100.00;99669.05;1751411;82;21145;-69
2022/06/06 02:59:07;;;;;;;;;;;;;;;12.35;100.00;99670.75;1721829;82;20436;-68
2022/06/06 03:01:34;;;;;;;;;;;;;;;12.39;100.00;99673.10;1697276;83;20123;-68
2022/06/06 03:04:01;;;;;;;;;;;;;;;12.42;100.00;99676.58;1692911;85;20180;-67
2022/06/06 03:06:37;;;;;;;;;;;;;;;12.48;100.00;99669.77;1692987;84;20477;-68
2022/06/06 03:09:10;;;;;;;;;;;;;;;12.56;100.00;99675.03;1693201;85;21670;-68
2022/06/06 03:11:54;;;;;;;;;;;;;;;12.67;100.00;99670.81;1693005;84;20163;-68
2022/06/06 03:14:49;;;;;;;;;;;;;;;12.79;100.00;99668.73;1693236;85;20419;-68
2022/06/06 03:23:15;;;;;;;;;;;;;;;13.17;100.00;99664.13;1692881;85;21164;-67
2022/06/06 03:25:52;;;;;;;;;;;;;;;13.28;100.00;99661.00;1693028;84;20423;-68
2022/06/06 03:28:25;;;;;;;;;;;;;;;13.39;100.00;99664.98;1692778;84;20122;-68
2022/06/06 03:31:04;;;;;;;;;;;;;;;13.48;100.00;99663.80;1634450;85;20123;-68
2022/06/06 03:33:49;;;;;;;;;;;;;;;13.56;100.00;99674.55;1693065;85;20091;-68
2022/06/06 03:36:30;;;;;;;;;;;;;;;13.63;100.00;99676.23;1692948;84;21134;-68
2022/06/06 03:39:16;;;;;;;;;;;;;;;13.70;100.00;99678.46;1692816;84;20123;-68
2022/06/06 03:41:50;;;;;;;;;;;;;;;13.78;100.00;99678.41;1692967;85;20116;-68
2022/06/06 03:44:45;;;;;;;;;;;;;;;13.87;100.00;99665.34;1676310;85;20131;-68
2022/06/06 03:47:21;;;;;;;;;;;;;;;13.95;100.00;99662.30;1692933;84;20152;-68
2022/06/06 03:49:54;;;;;;;;;;;;;;;14.03;100.00;99666.95;1693030;85;20776;-67
2022/06/06 03:52:26;;;;;;;;;;;;;;;14.11;100.00;99666.64;1693453;84;20087;-68
2022/06/06 03:54:57;;;;;;;;;;;;;;;14.17;100.00;99671.63;1693230;85;20415;-68
2022/06/06 03:57:25;;;;;;;;;;;;;;;14.24;100.00;99666.14;1693212;85;20592;-68
2022/06/06 03:59:56;;;;;;;;;;;;;;;14.31;100.00;99674.13;1693578;84;20453;-68
2022/06/06 04:02:31;;;;;;;;;;;;;;;14.37;100.00;99660.34;1699163;82;21120;-69
2022/06/06 04:05:02;;;;;;;;;;;;;;;14.43;100.00;99652.13;1719114;83;20115;-68
2022/06/06 04:07:29;;;;;;;;;;;;;;;14.49;100.00;99659.03;1734105;83;20167;-67
2022/06/06 04:09:55;;;;;;;;;;;;;;;14.57;100.00;99650.42;1734384;83;20415;-68
2022/06/06 04:12:38;;;;;;;;;;;;;;;14.68;100.00;99653.58;1734158;83;20123;-68
2022/06/06 04:15:27;;;;;;;;;;;;;;;14.76;100.00;99658.20;1734174;83;21106;-68
2022/06/06 04:18:13;;;;;;;;;;;;;;;14.86;100.00;99656.40;1733727;83;20111;-68
2022/06/06 04:21:05;;;;;;;;;;;;;;;14.95;100.00;99659.07;1734156;83;20441;-68
2022/06/06 04:24:07;;;;;;;;;;;;;;;15.04;100.00;99656.98;1728149;82;20107;-67
2022/06/06 04:26:43;;;;;;;;;;;;;;;15.14;100.00;99659.31;1690646;85;20087;-66
2022/06/06 04:29:24;;;;;;;;;;;;;;;15.25;100.00;99667.39;1692625;84;21166;-69
2022/06/06 04:31:59;;;;;;;;;;;;;;;15.36;100.00;99667.75;1691658;84;20091;-67
2022/06/06 04:34:32;;;;;;;;;;;;;;;15.46;100.00;99667.30;1692441;84;20167;-68
2022/06/06 04:37:10;;;;;;;;;;;;;;;15.57;100.00;99667.11;1692897;85;20151;-67
2022/06/06 04:39:44;;;;;;;;;;;;;;;15.68;100.00;99667.42;1692662;85;20103;-68
2022/06/06 04:42:17;;;;;;;;;;;;;;;15.78;100.00;99670.53;1692706;84;21241;-68
2022/06/06 04:45:04;;;;;;;;;;;;;;;15.90;100.00;99675.83;1692519;85;20124;-67
2022/06/06 04:47:34;;;;;;;;;;;;;;;16.01;99.85;99674.20;1692403;85;20139;-67
2022/06/06 04:50:10;;;;;;;;;;;;;;;16.12;98.30;99676.14;1691205;85;20186;-68
2022/06/06 04:52:42;;;;;;;;;;;;;;;16.22;98.04;99676.78;1692339;84;20419;-68
2022/06/06 04:55:10;;;;;;;;;;;;;;;16.31;96.94;99684.38;1698034;84;21193;-70
2022/06/06 04:57:37;;;;;;;;;;;;;;;16.38;96.02;99681.82;1692912;85;20091;-69
2022/06/06 05:00:07;;;;;;;;;;;;;;;16.46;95.00;99689.99;1692686;85;20107;-69
2022/06/06 05:02:34;;;;;;;;;;;;;;;16.56;94.22;99692.04;1692397;85;20087;-72
2022/06/06 05:05:01;;;;;;;;;;;;;;;16.66;92.36;99688.80;1691470;84;20166;-70
2022/06/06 05:07:41;;;;;;;;;;;;;;;16.73;91.53;99692.58;1689587;82;21116;-70
2022/06/06 05:10:28;;;;;;;;;;;;;;;16.81;90.46;99695.75;1689066;84;20137;-68
2022/06/06 05:13:22;;;;;;;;;;;;;;;16.90;89.71;99692.83;1700211;84;20108;-66
2022/06/06 05:15:54;;;;;;;;;;;;;;;16.96;89.28;99691.41;1700378;84;20142;-67
2022/06/06 05:18:48;;;;;;;;;;;;;;;17.03;88.84;99699.11;1702375;83;20132;-68
2022/06/06 05:21:44;;;;;;;;;;;;;;;17.07;87.96;99700.83;1701356;83;22398;-67
2022/06/06 05:24:23;;;;;;;;;;;;;;;17.18;88.59;99705.85;1701373;83;20249;-66
2022/06/06 05:26:53;;;;;;;;;;;;;;;17.30;87.91;99708.55;1701646;83;20101;-66
2022/06/06 05:29:27;;;;;;;;;;;;;;;17.39;87.15;99706.39;1701654;83;20093;-68
2022/06/06 05:32:09;;;;;;;;;;;;;;;17.51;87.17;99703.53;1701601;84;20100;-69
2022/06/06 05:34:41;;;;;;;;;;;;;;;17.63;87.31;99710.38;1695292;83;22118;-66
2022/06/06 05:37:28;;;;;;;;;;;;;;;17.75;85.85;99710.31;1691592;84;20116;-67
2022/06/06 05:40:01;;;;;;;;;;;;;;;17.85;86.83;99703.98;1701507;83;20085;-65
2022/06/06 05:42:52;;;;;;;;;;;;;;;17.98;86.46;99707.66;1701494;84;20578;-68
2022/06/06 05:45:34;;;;;;;;;;;;;;;18.08;86.01;99709.08;1701506;84;20125;-68
2022/06/06 05:48:33;;;;;;;;;;;;;;;18.16;83.42;99713.63;1701472;83;21214;-65
2022/06/06 05:51:18;;;;;;;;;;;;;;;18.20;82.60;99712.32;1622072;87;20097;-66
2022/06/06 05:53:58;;;;;;;;;;;;;;;18.24;82.97;99714.59;1621274;88;20164;-65
2022/06/06 05:56:44;;;;;;;;;;;;;;;18.31;81.73;99718.92;1673782;83;21106;-66
2022/06/06 05:59:16;;;;;;;;;;;;;;;18.41;83.12;99719.16;1701459;83;20185;-66
2022/06/06 06:01:47;;;;;;;;;;;;;;;18.57;83.88;99721.05;1627344;87;21221;-68
2022/06/06 06:04:33;;;;;;;;;;;;;;;18.72;83.10;99716.04;1659669;86;20470;-65
2022/06/06 06:07:21;;;;;;;;;;;;;;;18.85;82.86;99710.55;1695072;84;20087;-65
2022/06/06 06:10:04;;;;;;;;;;;;;;;19.00;81.62;99712.44;1698634;84;20140;-65
2022/06/06 06:12:54;;;;;;;;;;;;;;;19.14;79.51;99710.48;1700703;84;20508;-65
2022/06/06 06:15:41;;;;;;;;;;;;;;;19.24;78.42;99714.06;1698833;84;20164;-65
2022/06/06 06:18:16;;;;;;;;;;;;;;;19.36;77.19;99714.47;1698111;84;20183;-66
2022/06/06 06:20:46;;;;;;;;;;;;;;;19.46;77.13;99721.63;1700786;84;20098;-66
2022/06/06 06:23:16;;;;;;;;;;;;;;;19.56;76.87;99729.98;1703776;84;20090;-65
2022/06/06 06:25:43;;;;;;;;;;;;;;;19.65;76.51;99731.89;1675917;85;20117;-65
2022/06/06 06:28:11;;;;;;;;;;;;;;;19.76;76.76;99730.09;1675924;85;21880;-66
2022/06/06 06:30:44;;;;;;;;;;;;;;;19.91;74.08;99730.33;1671393;84;20425;-67
2022/06/06 06:33:24;;;;;;;;;;;;;;;20.03;72.97;99737.09;1676068;84;20441;-66
2022/06/06 06:36:07;;;;;;;;;;;;;;;20.06;70.97;99732.97;1676017;85;20089;-66
2022/06/06 06:38:50;;;;;;;;;;;;;;;20.14;70.16;99735.86;1648883;85;20089;-67
2022/06/06 06:41:30;;;;;;;;;;;;;;;20.24;67.80;99726.83;1675932;85;22279;-66
2022/06/06 06:44:13;;;;;;;;;;;;;;;20.35;66.60;99725.00;1676029;85;20105;-67
2022/06/06 06:46:48;;;;;;;;;;;;;;;20.40;65.96;99732.48;1676194;85;20104;-66
2022/06/06 06:49:41;;;;;;;;;;;;;;;20.46;64.29;99727.97;1675856;85;20077;-66
2022/06/06 06:52:15;;;;;;;;;;;;;;;20.50;62.45;99728.23;1697683;84;20154;-69
2022/06/06 06:55:02;;;;;;;;;;;;;;;20.60;64.06;99726.17;1696447;84;21258;-66
2022/06/06 06:57:58;;;;;;;;;;;;;;;20.77;64.14;99731.77;1704267;84;20439;-66
2022/06/06 07:00:25;;;;;;;;;;;;;;;20.90;61.95;99733.10;1704331;84;20111;-67
2022/06/06 07:09:19;;;;;;;;;;;;;;;21.33;55.97;99744.19;1704375;84;21174;-65
2022/06/06 07:12:14;;;;;;;;;;;;;;;21.47;54.67;99742.11;1692805;84;20139;-66
2022/06/06 07:14:45;;;;;;;;;;;;;;;21.55;53.45;99745.77;1704411;84;20122;-65
2022/06/06 07:17:12;;;;;;;;;;;;;;;21.67;53.94;99743.50;1703431;84;20128;-65
2022/06/06 07:19:50;;;;;;;;;;;;;;;21.80;51.74;99742.61;1702865;84;20136;-66
2022/06/06 07:22:17;;;;;;;;;;;;;;;21.94;50.44;99739.13;1704246;84;20591;-70
2022/06/06 07:24:46;;;;;;;;;;;;;;;22.12;51.84;99737.88;1704215;84;20087;-72
2022/06/06 07:27:13;;;;;;;;;;;;;;;22.30;50.60;99745.79;1702401;84;20075;-71
2022/06/06 07:29:42;;;;;;;;;;;;;;;22.35;47.54;99742.03;1671546;84;21220;-71
2022/06/06 07:32:24;;;;;;;;;;;;;;;22.35;48.76;99749.62;1697301;83;20175;-71
2022/06/06 07:35:15;;;;;;;;;;;;;;;22.44;48.85;99747.88;1697972;84;20831;-73
2022/06/06 07:37:49;;;;;;;;;;;;;;;22.63;47.95;99746.16;1700500;84;20098;-71
2022/06/06 07:40:50;;;;;;;;;;;;;;;22.86;46.32;99741.10;1696707;84;20128;-70
2022/06/06 07:43:30;;;;;;;;;;;;;;;23.03;46.14;99744.56;1678644;85;20152;-70
2022/06/06 07:46:17;;;;;;;;;;;;;;;23.20;45.24;99745.80;1678768;84;20116;-70
2022/06/06 07:48:59;;;;;;;;;;;;;;;23.20;44.41;99741.59;1678821;85;21171;-68
2022/06/06 07:51:36;;;;;;;;;;;;;;;23.21;45.22;99744.59;1690806;84;20454;-68
2022/06/06 07:54:15;;;;;;;;;;;;;;;23.33;43.99;99735.83;1707006;84;20119;-69
2022/06/06 07:57:03;;;;;;;;;;;;;;;23.50;44.89;99743.27;1675020;84;20146;-70
2022/06/06 07:59:59;;;;;;;;;;;;;;;23.65;43.90;99749.12;1707168;84;20498;-69
2022/06/06 08:02:31;;;;;;;;;;;;;;;23.83;41.44;99749.10;1706788;84;22829;-68
2022/06/06 08:05:37;;;;;;;;;;;;;;;23.95;42.87;99745.30;1706620;84;20147;-69
2022/06/06 08:08:14;;;;;;;;;;;;;;;23.89;42.48;99749.70;1706876;84;20474;-68
2022/06/06 08:10:44;;;;;;;;;;;;;;;23.74;44.92;99751.50;1683706;84;20117;-68
2022/06/06 08:13:17;;;;;;;;;;;;;;;23.70;44.36;99756.50;1668696;84;20473;-69
2022/06/06 08:16:00;;;;;;;;;;;;;;;23.64;44.82;99762.92;1678473;85;21147;-69
2022/06/06 08:18:52;;;;;;;;;;;;;;;23.54;44.25;99765.91;1682236;84;20097;-68
2022/06/06 08:21:22;;;;;;;;;;;;;;;23.38;41.91;99764.05;1686386;84;20170;-68
2022/06/06 08:23:55;;;;;;;;;;;;;;;23.07;43.58;99767.58;1706588;84;20481;-68
2022/06/06 08:26:24;;;;;;;;;;;;;;;22.99;43.09;99770.34;1707054;84;20090;-69
2022/06/06 08:28:51;;;;;;;;;;;;;;;22.96;42.74;99767.53;1706564;84;21136;-71
2022/06/06 08:31:18;;;;;;;;;;;;;;;22.80;42.64;99762.86;1706311;82;20119;-67
2022/06/06 08:33:46;;;;;;;;;;;;;;;22.59;43.13;99758.73;1706186;84;20180;-66
2022/06/06 08:36:25;;;;;;;;;;;;;;;22.44;43.44;99763.26;1701747;84;20178;-65
2022/06/06 08:39:24;;;;;;;;;;;;;;;22.31;44.52;99764.17;1702814;84;20143;-67
2022/06/06 08:42:19;;;;;;;;;;;;;;;22.15;44.67;99758.06;1677255;85;21286;-70
2022/06/06 08:45:12;;;;;;;;;;;;;;;22.31;46.56;99751.59;1678669;85;20109;-67
2022/06/06 08:47:52;;;;;;;;;;;;;;;22.98;44.73;99749.75;1699969;84;20126;-69
2022/06/06 08:50:45;;;;;;;;;;;;;;;23.75;43.89;99739.09;1693993;84;20152;-67
2022/06/06 08:53:22;;;;;;;;;;;;;;;24.38;42.57;99729.02;1707129;84;20098;-68
2022/06/06 08:56:08;;;;;;;;;;;;;;;24.89;40.11;99730.63;1704943;84;22162;-67
2022/06/06 08:58:58;;;;;;;;;;;;;;;24.94;37.19;99726.00;1706968;84;20102;-67
2022/06/06 09:01:34;;;;;;;;;;;;;;;24.66;39.26;99717.12;1706944;84;20098;-68
2022/06/06 09:04:32;;;;;;;;;;;;;;;24.74;40.39;99716.48;1707085;84;20119;-67
2022/06/06 09:07:19;;;;;;;;;;;;;;;24.99;36.00;99714.38;1691368;84;20455;-66
2022/06/06 09:10:25;;;;;;;;;;;;;;;25.06;36.09;99712.73;1653487;86;21230;-67
2022/06/06 09:13:13;;;;;;;;;;;;;;;25.20;35.89;99707.84;1653449;86;20093;-69
2022/06/06 09:16:03;;;;;;;;;;;;;;;25.42;37.73;99707.06;1672827;86;20128;-68
2022/06/06 09:18:44;;;;;;;;;;;;;;;25.75;35.69;99711.87;1665956;86;20141;-66
2022/06/06 09:21:38;;;;;;;;;;;;;;;25.61;36.44;99717.77;1645620;87;20107;-66
2022/06/06 09:24:14;;;;;;;;;;;;;;;25.58;35.90;99711.57;1664312;86;21235;-68
2022/06/06 09:26:57;;;;;;;;;;;;;;;25.41;37.42;99720.95;1669774;86;20101;-66
2022/06/06 09:29:44;;;;;;;;;;;;;;;25.12;36.47;99723.13;1686622;83;20099;-67
2022/06/06 09:32:32;;;;;;;;;;;;;;;24.83;36.40;99727.28;1701024;84;20111;-67
2022/06/06 09:35:12;;;;;;;;;;;;;;;24.87;37.61;99721.81;1700750;84;20512;-67
2022/06/06 09:38:16;;;;;;;;;;;;;;;25.14;37.68;99726.94;1700755;84;21240;-67
2022/06/06 09:41:05;;;;;;;;;;;;;;;25.20;37.62;99720.48;1672601;84;20420;-67
2022/06/06 09:43:39;;;;;;;;;;;;;;;25.06;38.54;99716.95;1684392;84;20180;-67
2022/06/06 09:46:26;;;;;;;;;;;;;;;25.25;40.32;99715.84;1671730;85;20149;-68
2022/06/06 09:49:01;;;;;;;;;;;;;;;25.66;38.72;99717.36;1672420;86;20105;-68
2022/06/06 09:51:48;;;;;;;;;;;;;;;26.18;37.03;99711.66;1672474;86;21126;-66
2022/06/06 10:01:00;;;;;;;;;;;;;;;27.42;31.10;99714.95;1672502;86;20151;-67
2022/06/06 10:03:49;;;;;;;;;;;;;;;27.59;33.00;99717.34;1671496;85;20112;-67
2022/06/06 10:06:21;;;;;;;;;;;;;;;27.87;33.93;99714.64;1663045;85;21240;-67
2022/06/06 10:09:10;;;;;;;;;;;;;;;28.08;32.30;99707.83;1674089;85;20077;-65
2022/06/06 10:11:59;;;;;;;;;;;;;;;28.20;32.69;99704.39;1655675;85;20105;-65
2022/06/06 10:14:34;;;;;;;;;;;;;;;28.29;30.94;99697.59;1659836;84;20170;-68
2022/06/06 10:17:22;;;;;;;;;;;;;;;28.07;29.20;99692.92;1667904;85;20137;-68
2022/06/06 10:20:01;;;;;;;;;;;;;;;27.85;30.69;99691.70;1672807;84;20817;-72
2022/06/06 10:22:50;;;;;;;;;;;;;;;27.94;32.98;99687.72;1672056;84;20165;-69
2022/06/06 10:25:27;;;;;;;;;;;;;;;27.94;33.22;99694.77;1649882;85;20117;-69
2022/06/06 10:28:07;;;;;;;;;;;;;;;27.85;33.49;99696.73;1670714;85;20105;-69
2022/06/06 10:30:52;;;;;;;;;;;;;;;27.94;33.68;99691.95;1628377;87;20432;-66
2022/06/06 10:33:40;;;;;;;;;;;;;;;28.11;32.50;99690.84;1641537;85;21173;-67
2022/06/06 10:36:29;;;;;;;;;;;;;;;28.28;31.91;99679.06;1671307;85;20129;-68
2022/06/06 10:39:01;;;;;;;;;;;;;;;28.48;29.44;99679.05;1672530;85;20417;-68
2022/06/06 10:41:47;;;;;;;;;;;;;;;28.12;29.38;99674.09;1673192;85;20412;-67
2022/06/06 10:44:36;;;;;;;;;;;;;;;27.69;29.41;99691.61;1671592;85;20221;-66
2022/06/06 10:47:12;;;;;;;;;;;;;;;27.25;30.48;99685.80;1672912;85;21175;-64
2022/06/06 10:49:47;;;;;;;;;;;;;;;26.80;31.80;99689.44;1667238;86;20433;-67
2022/06/06 10:52:45;;;;;;;;;;;;;;;26.40;33.63;99690.36;1673244;84;20178;-67
2022/06/06 10:55:25;;;;;;;;;;;;;;;26.05;34.63;99688.69;1674170;85;20125;-66
2022/06/06 10:58:21;;;;;;;;;;;;;;;25.94;37.11;99683.98;1664029;85;20153;-67
2022/06/06 11:01:13;;;;;;;;;;;;;;;26.26;35.01;99678.02;1674353;84;20144;-68
2022/06/06 11:03:43;;;;;;;;;;;;;;;26.79;33.87;99669.54;1674302;84;20479;-65
2022/06/06 11:06:40;;;;;;;;;;;;;;;27.16;30.86;99670.03;1675784;84;20100;-65
2022/06/06 11:09:31;;;;;;;;;;;;;;;27.50;32.28;99660.66;1669909;85;20137;-65
2022/06/06 11:12:37;;;;;;;;;;;;;;;27.79;32.35;99669.45;1668213;84;20106;-65
2022/06/06 11:15:04;;;;;;;;;;;;;;;27.67;32.06;99668.06;1674102;85;21168;-64
2022/06/06 11:17:35;;;;;;;;;;;;;;;27.33;31.70;99665.97;1673947;85;20125;-66
2022/06/06 11:20:08;;;;;;;;;;;;;;;27.06;32.66;99673.03;1653659;85;20101;-71
2022/06/06 11:22:47;;;;;;;;;;;;;;;26.77;32.64;99677.61;1674413;85;20110;-66
2022/06/06 11:25:16;;;;;;;;;;;;;;;26.47;32.74;99680.43;1674554;85;20129;-67
2022/06/06 11:28:15;;;;;;;;;;;;;;;26.51;34.68;99672.13;1673942;85;21189;-67
2022/06/06 11:31:04;;;;;;;;;;;;;;;26.63;34.16;99669.34;1669446;84;20157;-66
2022/06/06 11:33:40;;;;;;;;;;;;;;;26.64;32.72;99665.31;1660084;85;20167;-68
2022/06/06 11:36:30;;;;;;;;;;;;;;;26.50;31.99;99664.11;1654669;85;20428;-69
2022/06/06 11:39:00;;;;;;;;;;;;;;;26.57;33.31;99660.56;1674087;85;20088;-68
2022/06/06 11:41:55;;;;;;;;;;;;;;;26.93;31.90;99661.52;1673996;85;21150;-68
2022/06/06 11:44:48;;;;;;;;;;;;;;;27.38;31.28;99652.19;1660978;84;20103;-69
2022/06/06 11:47:51;;;;;;;;;;;;;;;27.62;31.58;99653.05;1651471;85;20152;-68
2022/06/06 11:50:30;;;;;;;;;;;;;;;27.78;32.70;99652.34;1663546;84;20637;-68
2022/06/06 11:53:17;;;;;;;;;;;;;;;28.16;31.09;99645.19;1653095;85;20083;-66
2022/06/06 11:56:11;;;;;;;;;;;;;;;28.62;31.08;99651.94;1673433;84;21143;-66
2022/06/06 11:59:10;;;;;;;;;;;;;;;28.97;31.23;99652.40;1675149;85;20117;-67
2022/06/06 12:01:56;;;;;;;;;;;;;;;29.15;29.96;99652.79;1667657;85;20449;-66
2022/06/06 12:04:38;;;;;;;;;;;;;;;29.30;32.51;99651.22;1674079;85;20588;-66
2022/06/06 12:07:31;;;;;;;;;;;;;;;29.48;30.20;99647.34;1672966;83;20174;-66
2022/06/06 12:10:10;;;;;;;;;;;;;;;29.33;29.14;99637.62;1689758;84;21216;-66
2022/06/06 12:13:04;;;;;;;;;;;;;;;28.74;29.31;99644.83;1671364;85;20525;-65
2022/06/06 12:16:10;;;;;;;;;;;;;;;28.36;27.32;99646.61;1671427;86;20107;-66
2022/06/06 12:18:44;;;;;;;;;;;;;;;28.00;27.29;99649.94;1671264;86;20103;-66
2022/06/06 12:21:37;;;;;;;;;;;;;;;28.19;28.33;99645.73;1671271;85;20115;-66
2022/06/06 12:24:24;;;;;;;;;;;;;;;28.58;30.87;99638.50;1671436;86;21225;-65
2022/06/06 12:27:06;;;;;;;;;;;;;;;29.10;28.78;99634.94;1676035;83;20099;-65
2022/06/06 12:29:40;;;;;;;;;;;;;;;29.44;28.21;99631.12;1679143;83;20161;-66
2022/06/06 12:32:29;;;;;;;;;;;;;;;29.58;29.18;99623.66;1699636;84;20102;-65
2022/06/06 12:35:18;;;;;;;;;;;;;;;29.82;28.23;99620.63;1694678;83;20099;-65
2022/06/06 12:38:04;;;;;;;;;;;;;;;30.07;28.10;99620.75;1671588;85;21695;-66
2022/06/06 12:40:40;;;;;;;;;;;;;;;30.09;26.67;99621.11;1698620;84;20093;-67
2022/06/06 12:43:39;;;;;;;;;;;;;;;30.17;28.25;99621.08;1695467;84;20136;-68
2022/06/06 12:46:18;;;;;;;;;;;;;;;30.39;27.42;99624.73;1680880;84;20116;-67
2022/06/06 12:48:56;;;;;;;;;;;;;;;30.49;26.66;99625.03;1671263;86;20181;-67
2022/06/06 12:51:37;;;;;;;;;;;;;;;30.57;25.71;99618.55;1671002;86;21155;-68
2022/06/06 12:54:21;;;;;;;;;;;;;;;30.67;24.52;99613.97;1661096;84;20184;-68
2022/06/06 12:56:52;;;;;;;;;;;;;;;30.85;25.19;99612.02;1701726;83;20257;-68
2022/06/06 12:59:38;;;;;;;;;;;;;;;30.85;23.58;99609.19;1701968;84;20118;-68
2022/06/06 13:02:27;;;;;;;;;;;;;;;30.53;24.44;99610.15;1701409;83;20106;-66
2022/06/06 13:05:08;;;;;;;;;;;;;;;30.36;25.14;99595.89;1682076;84;20630;-68
2022/06/06 13:07:45;;;;;;;;;;;;;;;30.39;24.42;99607.11;1701830;83;20107;-68
2022/06/06 13:10:35;;;;;;;;;;;;;;;30.38;24.77;99606.14;1687291;85;20448;-67
2022/06/06 13:13:39;;;;;;;;;;;;;;;30.58;24.56;99601.12;1704167;84;20155;-67
2022/06/06 13:16:31;;;;;;;;;;;;;;;30.81;23.14;99605.04;1678753;84;20466;-67
2022/06/06 13:19:17;;;;;;;;;;;;;;;31.04;23.53;99600.30;1677355;84;20176;-70
2022/06/06 13:22:21;;;;;;;;;;;;;;;30.83;21.97;99605.38;1678630;84;20147;-68
2022/06/06 13:24:59;;;;;;;;;;;;;;;30.77;22.62;99597.89;1704755;84;20131;-73
2022/06/06 13:27:28;;;;;;;;;;;;;;;30.91;23.73;99597.45;1704313;84;20181;-73
2022/06/06 13:30:22;;;;;;;;;;;;;;;31.03;22.58;99597.28;1704682;84;20495;-70
2022/06/06 13:33:21;;;;;;;;;;;;;;;31.16;22.49;99595.27;1704729;84;21208;-70
2022/06/06 13:35:53;;;;;;;;;;;;;;;31.44;22.23;99593.51;1683521;84;20115;-69
2022/06/06 13:38:41;;;;;;;;;;;;;;;31.37;21.68;99589.49;1704084;83;20184;-70
2022/06/06 13:41:25;;;;;;;;;;;;;;;31.14;20.93;99587.22;1676429;85;20103;-70
2022/06/06 13:44:01;;;;;;;;;;;;;;;30.96;21.88;99589.80;1675488;85;20141;-68
2022/06/06 13:49:41;;;;;;;;;;;;;;;31.26;21.96;99588.43;1677668;84;20103;-69
2022/06/06 13:52:48;;;;;;;;;;;;;;;31.48;21.90;99584.26;1698396;84;20119;-70
2022/06/06 13:55:30;;;;;;;;;;;;;;;31.52;21.98;99582.89;1685511;84;20118;-68
2022/06/06 13:58:13;;;;;;;;;;;;;;;31.53;21.55;99582.26;1691284;84;20105;-69
2022/06/06 14:01:10;;;;;;;;;;;;;;;31.63;22.76;99588.81;1677823;84;20131;-69
2022/06/06 14:03:45;;;;;;;;;;;;;;;31.69;20.71;99572.20;1700992;84;20098;-69
2022/06/06 14:06:24;;;;;;;;;;;;;;;31.67;21.99;99572.47;1704401;84;20230;-68
2022/06/06 14:08:54;;;;;;;;;;;;;;;31.65;22.32;99568.67;1707173;84;20123;-68